Time;durP1;ratioP1;P1;durP2;ratioP2;P2;SDS_P1;SDS_P2;PMS_P1;PMS_P2;Temp;Humidity;BMP_temperature;BMP_pressure;BME280_temperature;BME280_humidity;BME280_pressure;Samples;Min_cycle;Max_cycle;Signal;HPM_P1;HPM_P2
2023/03/21 00:00:46;;;;;;;4.70;3.80;;;7.20;99.90;;;;;;4984730;28;20026;-80
2023/03/21 00:03:13;;;;;;;6.22;3.40;;;7.20;99.90;;;;;;4953522;28;20035;-82
2023/03/21 00:05:40;;;;;;;4.70;3.33;;;7.10;99.90;;;;;;4945622;28;20086;-80
2023/03/21 00:08:06;;;;;;;5.22;3.28;;;7.10;99.90;;;;;;4971531;28;20692;-83
2023/03/21 00:10:32;;;;;;;4.72;3.05;;;7.00;99.90;;;;;;4961992;28;20321;-80
2023/03/21 00:12:58;;;;;;;7.13;3.40;;;7.00;99.90;;;;;;4945490;28;20031;-79
2023/03/21 00:15:26;;;;;;;4.15;3.08;;;7.00;99.90;;;;;;4974235;28;20034;-81
2023/03/21 00:17:57;;;;;;;3.85;3.20;;;7.00;99.90;;;;;;4952799;28;20138;-79
2023/03/21 00:20:23;;;;;;;5.55;3.10;;;6.90;99.90;;;;;;4950968;28;20039;-80
2023/03/21 00:22:48;;;;;;;3.30;2.58;;;6.90;99.90;;;;;;4978489;28;20039;-79
2023/03/21 00:25:14;;;;;;;7.18;3.17;;;6.90;99.90;;;;;;4980417;28;20624;-79
2023/03/21 00:27:40;;;;;;;4.15;2.92;;;6.80;99.90;;;;;;5001819;28;20145;-79
2023/03/21 00:30:06;;;;;;;5.10;2.90;;;6.80;99.90;;;;;;4998639;28;20034;-80
2023/03/21 00:32:32;;;;;;;4.78;2.70;;;6.80;99.90;;;;;;5004925;28;20034;-80
2023/03/21 00:34:58;;;;;;;5.38;3.05;;;6.80;99.90;;;;;;4963024;28;20125;-80
2023/03/21 00:37:24;;;;;;;4.65;2.53;;;6.70;99.90;;;;;;4968891;28;20042;-81
2023/03/21 00:39:50;;;;;;;4.15;2.58;;;6.70;99.90;;;;;;4962636;28;20030;-81
2023/03/21 00:42:17;;;;;;;3.08;2.42;;;6.70;99.90;;;;;;4940966;28;20059;-80
2023/03/21 00:44:44;;;;;;;5.22;2.85;;;6.70;99.90;;;;;;4960726;28;20031;-82
2023/03/21 00:47:13;;;;;;;4.78;2.70;;;6.70;99.90;;;;;;4970829;28;20031;-80
2023/03/21 00:49:39;;;;;;;6.50;3.28;;;6.70;99.90;;;;;;4971517;28;20415;-80
2023/03/21 00:52:07;;;;;;;4.32;2.80;;;6.70;99.90;;;;;;4944102;28;20031;-80
2023/03/21 00:54:34;;;;;;;4.35;2.38;;;6.60;99.90;;;;;;4958749;28;20498;-79
2023/03/21 00:57:01;;;;;;;4.40;2.90;;;6.60;99.90;;;;;;4955986;28;20450;-80
2023/03/21 00:59:29;;;;;;;3.33;2.53;;;6.60;99.90;;;;;;4968083;28;20034;-80
2023/03/21 01:01:59;;;;;;;3.55;2.38;;;6.60;99.90;;;;;;4965553;28;20023;-78
2023/03/21 01:04:25;;;;;;;3.92;2.35;;;6.60;99.90;;;;;;4962980;28;20027;-80
2023/03/21 01:06:53;;;;;;;4.53;2.40;;;6.60;99.90;;;;;;4972541;28;20026;-81
2023/03/21 01:09:21;;;;;;;4.35;2.63;;;6.50;99.90;;;;;;4957044;28;20044;-80
2023/03/21 01:11:49;;;;;;;4.00;2.20;;;6.60;99.90;;;;;;4963617;28;20122;-81
2023/03/21 01:14:17;;;;;;;3.65;2.35;;;6.50;99.90;;;;;;4955292;28;20514;-80
2023/03/21 01:16:43;;;;;;;2.97;2.17;;;6.50;99.90;;;;;;4974698;28;20035;-82
2023/03/21 01:19:11;;;;;;;4.35;2.20;;;6.50;99.90;;;;;;4976211;28;20039;-81
2023/03/21 01:21:37;;;;;;;4.53;2.40;;;6.50;99.90;;;;;;4963128;28;20448;-81
2023/03/21 01:24:03;;;;;;;4.35;2.38;;;6.50;99.90;;;;;;4980888;28;20037;-80
2023/03/21 01:26:29;;;;;;;3.63;2.33;;;6.40;99.90;;;;;;4957031;28;20038;-78
2023/03/21 01:28:55;;;;;;;3.05;2.10;;;6.50;99.90;;;;;;4981142;28;20102;-80
2023/03/21 01:31:21;;;;;;;3.47;2.63;;;6.40;99.90;;;;;;4997448;28;20078;-80
2023/03/21 01:33:47;;;;;;;2.50;1.80;;;6.30;99.90;;;;;;4961767;28;20034;-80
2023/03/21 01:36:21;;;;;;;2.85;2.38;;;6.30;99.90;;;;;;4981926;28;20499;-79
2023/03/21 01:38:49;;;;;;;3.53;2.70;;;6.20;99.90;;;;;;4948709;28;20540;-78
2023/03/21 01:41:21;;;;;;;3.00;2.38;;;6.20;99.90;;;;;;4952631;29;20192;-81
2023/03/21 01:43:48;;;;;;;6.55;3.03;;;6.10;99.90;;;;;;4968133;28;20023;-80
2023/03/21 01:46:39;;;;;;;3.92;2.63;;;6.00;99.90;;;;;;4979370;28;20027;-80
2023/03/21 01:49:17;;;;;;;3.88;2.70;;;5.90;99.90;;;;;;4963792;28;20519;-82
2023/03/21 01:52:02;;;;;;;3.55;2.70;;;5.90;99.90;;;;;;4974043;28;20042;-81
2023/03/21 01:54:33;;;;;;;3.17;2.70;;;5.80;99.90;;;;;;4941682;28;20094;-80
2023/03/21 01:57:02;;;;;;;5.20;2.40;;;5.80;99.90;;;;;;4955131;28;20527;-80
2023/03/21 01:59:37;;;;;;;4.80;2.63;;;5.80;99.90;;;;;;4957078;28;20047;-79
2023/03/21 02:02:27;;;;;;;3.17;2.25;;;5.70;99.90;;;;;;4982288;28;20110;-82
2023/03/21 02:05:14;;;;;;;6.80;2.55;;;5.70;99.90;;;;;;4959089;28;20038;-81
2023/03/21 02:07:42;;;;;;;4.60;2.42;;;5.60;99.90;;;;;;4993786;28;20491;-81
2023/03/21 02:10:12;;;;;;;2.65;2.13;;;5.60;99.90;;;;;;4952494;28;20040;-81
2023/03/21 02:12:42;;;;;;;2.67;2.20;;;5.60;99.90;;;;;;4966101;28;20034;-81
2023/03/21 02:15:10;;;;;;;5.15;2.63;;;5.50;99.90;;;;;;4976871;28;20039;-80
2023/03/21 02:18:17;;;;;;;4.93;2.80;;;5.50;99.90;;;;;;4990908;28;20069;-79
2023/03/21 02:21:25;;;;;;;4.00;2.25;;;5.60;99.90;;;;;;4970780;28;20034;-80
2023/03/21 02:24:27;;;;;;;5.03;2.70;;;5.50;99.90;;;;;;4948758;28;20070;-81
2023/03/21 02:27:17;;;;;;;4.07;3.03;;;5.50;99.90;;;;;;4950452;28;20026;-81
2023/03/21 02:30:13;;;;;;;4.07;2.88;;;5.50;99.90;;;;;;4949640;28;20026;-80
2023/03/21 02:32:43;;;;;;;3.93;2.73;;;5.50;99.90;;;;;;4952730;28;20038;-82
2023/03/21 02:35:39;;;;;;;5.28;2.97;;;5.40;99.90;;;;;;4955740;28;20037;-80
2023/03/21 02:38:22;;;;;;;5.95;3.13;;;5.40;99.90;;;;;;4959235;28;20059;-80
2023/03/21 02:40:57;;;;;;;6.00;3.28;;;5.30;99.90;;;;;;4976940;28;20045;-82
2023/03/21 02:43:36;;;;;;;4.03;3.08;;;5.20;99.90;;;;;;4979752;28;20034;-81
2023/03/21 02:46:17;;;;;;;5.18;3.33;;;5.20;99.90;;;;;;4961191;28;20117;-80
2023/03/21 02:48:55;;;;;;;5.15;3.25;;;5.10;99.90;;;;;;4941662;29;20035;-80
2023/03/21 02:51:24;;;;;;;5.53;3.25;;;5.10;99.90;;;;;;4984108;28;20058;-82
2023/03/21 02:53:57;;;;;;;5.30;3.15;;;5.10;99.90;;;;;;4960525;28;20039;-80
2023/03/21 02:56:24;;;;;;;6.40;3.80;;;5.10;99.90;;;;;;4977345;28;20403;-82
2023/03/21 02:58:54;;;;;;;6.50;3.08;;;5.00;99.90;;;;;;4967588;28;20035;-80
2023/03/21 03:01:20;;;;;;;4.93;3.35;;;5.00;99.90;;;;;;4979453;28;20051;-80
2023/03/21 03:03:47;;;;;;;6.25;3.30;;;4.90;99.90;;;;;;4955679;28;20030;-80
2023/03/21 03:06:18;;;;;;;6.28;3.20;;;5.00;99.90;;;;;;4978406;28;20030;-82
2023/03/21 03:09:09;;;;;;;4.85;3.10;;;5.00;99.90;;;;;;4959594;28;20542;-80
2023/03/21 03:11:40;;;;;;;4.57;3.03;;;4.90;99.90;;;;;;4962156;28;20065;-81
2023/03/21 03:14:23;;;;;;;4.93;2.90;;;4.90;99.90;;;;;;4979190;28;20023;-82
2023/03/21 03:17:05;;;;;;;5.32;3.00;;;4.90;99.90;;;;;;4979820;28;20086;-80
2023/03/21 03:19:39;;;;;;;3.92;3.00;;;4.90;99.90;;;;;;4968135;28;20031;-79
2023/03/21 03:22:20;;;;;;;4.63;3.20;;;4.90;99.90;;;;;;4940880;28;20035;-80
2023/03/21 03:25:00;;;;;;;3.78;2.78;;;4.90;99.90;;;;;;4959287;28;20031;-81
2023/03/21 03:27:31;;;;;;;5.18;3.00;;;4.90;99.90;;;;;;4961162;28;20109;-81
2023/03/21 03:30:03;;;;;;;6.15;3.25;;;4.90;99.90;;;;;;4951822;29;20041;-80
2023/03/21 03:32:43;;;;;;;5.85;3.58;;;4.90;99.90;;;;;;4958146;28;20042;-81
2023/03/21 03:35:12;;;;;;;5.25;3.28;;;4.90;99.90;;;;;;4936785;28;20066;-79
2023/03/21 03:37:40;;;;;;;3.85;3.13;;;4.90;99.90;;;;;;4961868;28;20558;-81
2023/03/21 03:40:25;;;;;;;5.25;3.25;;;4.90;99.90;;;;;;4974049;28;20027;-80
2023/03/21 03:43:09;;;;;;;3.30;2.67;;;4.90;99.90;;;;;;4955728;28;20031;-79
2023/03/21 03:45:46;;;;;;;4.82;3.28;;;4.80;99.90;;;;;;4943364;28;20436;-79
2023/03/21 03:48:18;;;;;;;4.03;2.90;;;4.80;99.90;;;;;;4991406;28;20030;-79
2023/03/21 03:51:05;;;;;;;4.75;2.88;;;4.80;99.90;;;;;;4991087;28;20100;-82
2023/03/21 03:54:02;;;;;;;3.88;2.72;;;4.70;99.90;;;;;;4976457;28;20058;-79
2023/03/21 03:56:29;;;;;;;6.35;3.13;;;4.70;99.90;;;;;;4952847;28;20450;-81
2023/03/21 03:58:56;;;;;;;6.72;3.17;;;4.70;99.90;;;;;;4943159;28;20035;-81
2023/03/21 04:01:34;;;;;;;5.75;3.25;;;4.70;99.90;;;;;;4934648;28;20381;-81
2023/03/21 04:04:00;;;;;;;6.03;3.15;;;4.70;99.90;;;;;;4973736;28;20049;-80
2023/03/21 04:06:27;;;;;;;8.30;3.25;;;4.70;99.90;;;;;;4961000;28;20038;-80
2023/03/21 04:08:55;;;;;;;5.30;3.20;;;4.70;99.90;;;;;;5016746;23;20034;-80
2023/03/21 04:11:22;;;;;;;3.97;2.85;;;4.70;99.90;;;;;;5033613;28;20078;-78
2023/03/21 04:13:51;;;;;;;5.30;3.00;;;4.70;99.90;;;;;;5032863;28;20021;-79
2023/03/21 04:16:24;;;;;;;5.00;3.38;;;4.70;99.90;;;;;;5021086;28;20034;-80
2023/03/21 04:18:51;;;;;;;5.00;3.10;;;4.70;99.90;;;;;;5012572;28;20038;-79
2023/03/21 04:21:18;;;;;;;5.93;2.80;;;4.80;99.90;;;;;;5013010;28;20164;-80
2023/03/21 04:23:44;;;;;;;3.63;3.13;;;4.80;99.90;;;;;;5031715;28;20030;-78
2023/03/21 04:26:10;;;;;;;5.80;3.90;;;4.80;99.90;;;;;;5026794;28;20029;-79
2023/03/21 04:28:41;;;;;;;4.88;3.28;;;4.90;99.90;;;;;;5033154;28;20038;-80
2023/03/21 04:31:30;;;;;;;5.50;3.53;;;4.90;99.90;;;;;;5034061;28;20087;-81
2023/03/21 04:34:11;;;;;;;6.35;3.60;;;4.90;99.90;;;;;;5043696;28;20030;-79
2023/03/21 04:36:46;;;;;;;4.63;3.35;;;4.90;99.90;;;;;;5044037;28;20117;-80
2023/03/21 04:39:12;;;;;;;8.10;3.50;;;4.90;99.90;;;;;;5027442;28;20455;-80
2023/03/21 04:41:42;;;;;;;8.63;4.10;;;4.90;99.90;;;;;;5007355;28;20069;-78
2023/03/21 04:44:08;;;;;;;4.43;3.25;;;5.00;99.90;;;;;;5029129;28;20033;-80
2023/03/21 04:46:35;;;;;;;10.98;3.95;;;5.00;99.90;;;;;;5010957;28;20252;-81
2023/03/21 04:49:01;;;;;;;6.07;3.80;;;5.10;99.90;;;;;;5032658;28;20404;-80
2023/03/21 04:51:27;;;;;;;4.45;3.38;;;5.10;99.90;;;;;;5026693;28;20112;-81
2023/03/21 04:53:56;;;;;;;6.45;3.58;;;5.20;99.90;;;;;;5024689;28;20061;-80
2023/03/21 04:56:29;;;;;;;6.57;3.55;;;5.20;99.90;;;;;;5031631;28;20033;-80
2023/03/21 04:58:56;;;;;;;7.30;3.83;;;5.20;99.90;;;;;;5022880;28;20253;-80
2023/03/21 05:01:22;;;;;;;6.22;3.50;;;5.30;99.90;;;;;;5012841;28;20105;-80
2023/03/21 05:03:48;;;;;;;6.93;3.72;;;5.30;99.90;;;;;;5019756;28;20049;-80
2023/03/21 05:06:14;;;;;;;5.28;3.40;;;5.30;99.90;;;;;;5034805;28;20030;-78
2023/03/21 05:08:41;;;;;;;6.22;4.10;;;5.30;99.90;;;;;;5052492;28;20033;-81
2023/03/21 05:11:10;;;;;;;6.65;3.30;;;5.30;99.90;;;;;;5031501;28;20026;-80
2023/03/21 05:13:36;;;;;;;6.68;3.67;;;5.30;99.90;;;;;;5035331;28;20046;-80
2023/03/21 05:16:02;;;;;;;4.30;3.20;;;5.30;99.90;;;;;;5030634;28;20087;-81
2023/03/21 05:18:29;;;;;;;5.25;3.45;;;5.30;99.90;;;;;;5033322;28;20100;-80
2023/03/21 05:21:09;;;;;;;4.85;3.33;;;5.40;99.90;;;;;;5013325;28;20030;-80
2023/03/21 05:23:40;;;;;;;7.18;3.30;;;5.40;99.90;;;;;;5011949;28;20375;-80
2023/03/21 05:26:08;;;;;;;4.85;3.40;;;5.40;99.90;;;;;;5035186;28;20018;-80
2023/03/21 05:28:46;;;;;;;6.45;3.28;;;5.40;99.90;;;;;;5032296;28;20120;-80
2023/03/21 05:31:16;;;;;;;4.22;3.30;;;5.40;99.90;;;;;;5028400;28;20026;-82
2023/03/21 05:33:45;;;;;;;4.63;3.08;;;5.40;99.90;;;;;;4981774;28;20049;-82
2023/03/21 05:36:15;;;;;;;5.07;3.28;;;5.40;99.90;;;;;;5032971;28;20032;-80
2023/03/21 05:38:44;;;;;;;6.72;3.55;;;5.40;99.90;;;;;;5048226;28;20030;-81
2023/03/21 05:41:14;;;;;;;6.68;3.22;;;5.50;99.90;;;;;;5034453;28;20029;-80
2023/03/21 05:43:40;;;;;;;6.25;3.85;;;5.50;99.90;;;;;;4999023;28;20037;-80
2023/03/21 05:46:06;;;;;;;6.57;3.70;;;5.50;99.90;;;;;;5033835;28;20113;-80
2023/03/21 05:48:33;;;;;;;5.82;3.38;;;5.50;99.90;;;;;;5024821;28;20497;-80
2023/03/21 05:51:19;;;;;;;8.63;3.63;;;5.60;99.90;;;;;;5026651;28;20048;-81
2023/03/21 05:53:45;;;;;;;6.07;3.38;;;5.60;99.90;;;;;;5019333;28;20037;-82
2023/03/21 05:56:14;;;;;;;5.55;3.42;;;5.60;99.90;;;;;;4999466;28;20029;-80
2023/03/21 05:58:48;;;;;;;4.43;3.45;;;5.70;99.90;;;;;;5033626;28;20503;-79
2023/03/21 06:01:14;;;;;;;6.47;3.28;;;5.80;99.90;;;;;;5022945;28;20040;-81
2023/03/21 06:03:45;;;;;;;6.75;3.40;;;5.80;99.90;;;;;;5005722;28;20025;-80
2023/03/21 06:06:25;;;;;;;4.45;3.22;;;5.90;99.90;;;;;;5001870;28;20465;-80
2023/03/21 06:08:56;;;;;;;8.98;3.50;;;5.90;99.90;;;;;;5038660;28;20504;-79
2023/03/21 06:11:27;;;;;;;5.35;3.33;;;5.90;99.90;;;;;;5033243;28;20037;-80
2023/03/21 06:14:12;;;;;;;5.95;3.72;;;6.00;99.90;;;;;;5034387;28;20127;-80
2023/03/21 06:16:38;;;;;;;6.78;3.45;;;6.00;99.90;;;;;;5014143;28;20120;-80
2023/03/21 06:19:04;;;;;;;5.20;3.30;;;6.10;99.90;;;;;;5000938;28;20096;-82
2023/03/21 06:21:39;;;;;;;5.43;3.37;;;6.10;99.90;;;;;;5012009;28;20021;-80
2023/03/21 06:24:07;;;;;;;5.05;3.15;;;6.20;99.90;;;;;;5027382;28;20026;-79
2023/03/21 06:26:33;;;;;;;5.60;3.58;;;6.30;99.90;;;;;;5025551;28;20112;-82
2023/03/21 06:29:00;;;;;;;5.78;3.50;;;6.40;99.90;;;;;;5030717;28;20055;-80
2023/03/21 06:31:26;;;;;;;6.65;3.65;;;6.40;99.90;;;;;;5025045;28;20121;-80
2023/03/21 06:33:58;;;;;;;6.22;3.40;;;6.50;99.90;;;;;;5031415;28;20030;-80
2023/03/21 06:36:24;;;;;;;8.18;3.03;;;6.50;99.90;;;;;;5027532;28;20044;-81
2023/03/21 06:38:50;;;;;;;8.38;3.53;;;6.60;99.90;;;;;;5015700;28;20052;-80
2023/03/21 06:41:17;;;;;;;5.03;3.17;;;6.80;99.90;;;;;;5027722;28;20030;-80
2023/03/21 06:43:52;;;;;;;3.83;2.85;;;6.90;99.90;;;;;;5023040;28;20025;-80
2023/03/21 06:46:18;;;;;;;3.72;2.70;;;7.00;99.90;;;;;;5027238;28;20087;-80
2023/03/21 06:48:44;;;;;;;7.13;2.70;;;7.20;99.90;;;;;;5020185;28;20061;-80
2023/03/21 06:51:14;;;;;;;4.88;3.03;;;7.40;99.90;;;;;;4986260;28;20046;-80
2023/03/21 06:53:49;;;;;;;5.30;3.20;;;7.60;99.90;;;;;;5008384;28;20410;-81
2023/03/21 06:56:35;;;;;;;4.43;2.92;;;7.80;99.90;;;;;;5017138;28;20235;-81
2023/03/21 06:59:02;;;;;;;4.57;3.10;;;7.90;99.90;;;;;;4987876;28;20041;-80
2023/03/21 07:01:47;;;;;;;4.82;2.92;;;8.00;99.90;;;;;;5032046;28;20052;-82
2023/03/21 07:04:13;;;;;;;5.53;3.20;;;8.00;99.90;;;;;;5014726;28;20124;-79
2023/03/21 07:06:39;;;;;;;5.43;3.10;;;8.10;99.90;;;;;;5030019;28;20447;-80
2023/03/21 07:09:05;;;;;;;7.53;3.38;;;8.20;99.90;;;;;;5029941;28;20433;-80
2023/03/21 07:11:33;;;;;;;4.07;2.95;;;8.40;99.90;;;;;;5027801;28;20105;-79
2023/03/21 07:14:01;;;;;;;5.15;2.90;;;8.70;99.90;;;;;;5026955;28;20138;-81
2023/03/21 07:16:27;;;;;;;4.70;2.70;;;9.20;99.90;;;;;;5027269;28;20087;-80
2023/03/21 07:18:52;;;;;;;5.80;2.58;;;9.50;99.90;;;;;;5035447;28;20390;-82
2023/03/21 07:21:18;;;;;;;4.72;2.97;;;9.70;99.90;;;;;;5016965;28;20073;-81
2023/03/21 07:23:45;;;;;;;5.40;3.00;;;9.80;99.90;;;;;;5031658;28;20029;-79
2023/03/21 07:26:12;;;;;;;6.15;2.83;;;9.90;99.90;;;;;;5031615;28;20398;-82
2023/03/21 07:28:38;;;;;;;2.92;2.47;;;10.00;99.90;;;;;;5018997;28;20076;-79
2023/03/21 07:31:05;;;;;;;7.03;3.05;;;9.90;99.90;;;;;;5025476;28;20029;-81
2023/03/21 07:33:32;;;;;;;8.75;3.20;;;10.00;99.90;;;;;;5028951;28;20485;-79
2023/03/21 07:36:00;;;;;;;5.45;3.17;;;10.30;99.90;;;;;;5031089;28;20033;-80
2023/03/21 07:38:29;;;;;;;5.68;3.45;;;11.00;99.90;;;;;;5020491;28;20125;-79
2023/03/21 07:40:58;;;;;;;6.70;3.38;;;11.70;99.90;;;;;;5010639;28;20030;-79
2023/03/21 07:43:24;;;;;;;4.38;2.85;;;12.40;99.90;;;;;;5031184;28;20154;-80
2023/03/21 07:45:56;;;;;;;7.07;2.95;;;13.00;99.90;;;;;;5020359;28;20109;-80
2023/03/21 07:48:21;;;;;;;3.67;2.70;;;13.50;99.90;;;;;;5042868;28;20069;-80
2023/03/21 07:50:48;;;;;;;5.53;2.63;;;14.10;99.90;;;;;;5030986;28;20037;-79
2023/03/21 07:53:14;;;;;;;4.00;2.40;;;14.60;99.90;;;;;;5025182;28;20045;-79
2023/03/21 07:55:39;;;;;;;7.53;2.63;;;14.80;99.90;;;;;;4987048;28;20041;-80
2023/03/21 07:58:05;;;;;;;3.10;2.17;;;15.10;99.90;;;;;;5002889;28;20755;-80
2023/03/21 08:00:31;;;;;;;4.38;2.65;;;15.30;99.90;;;;;;5027078;28;20513;-80
2023/03/21 08:02:58;;;;;;;4.53;2.40;;;15.50;99.90;;;;;;5017739;28;20060;-79
2023/03/21 08:05:32;;;;;;;4.43;2.47;;;15.60;99.70;;;;;;5009162;28;20045;-79
2023/03/21 08:07:58;;;;;;;4.13;2.55;;;15.60;98.20;;;;;;5024150;28;20076;-80
2023/03/21 08:10:24;;;;;;;4.18;2.92;;;15.60;96.10;;;;;;5008519;28;20540;-80
2023/03/21 08:12:50;;;;;;;2.67;2.30;;;15.50;96.90;;;;;;5026776;28;20425;-80
2023/03/21 08:15:16;;;;;;;6.47;2.60;;;15.40;95.30;;;;;;5022111;28;20065;-80
2023/03/21 08:17:44;;;;;;;4.70;2.58;;;15.10;95.70;;;;;;5028523;28;20080;-79
2023/03/21 08:20:15;;;;;;;4.97;2.88;;;15.10;95.80;;;;;;5028011;28;20498;-79
2023/03/21 08:22:42;;;;;;;5.78;2.65;;;15.00;96.00;;;;;;5027297;28;20037;-80
2023/03/21 08:25:12;;;;;;;5.32;2.70;;;14.70;96.10;;;;;;5031097;28;20037;-79
2023/03/21 08:27:39;;;;;;;4.28;2.65;;;14.40;96.30;;;;;;5025581;28;20033;-79
2023/03/21 08:30:05;;;;;;;4.15;2.50;;;14.20;96.50;;;;;;5031598;28;20406;-79
2023/03/21 08:32:31;;;;;;;5.25;2.65;;;14.10;97.20;;;;;;5028146;28;20040;-80
2023/03/21 08:34:59;;;;;;;11.25;3.25;;;14.00;97.00;;;;;;5032056;28;20362;-81
2023/03/21 08:37:25;;;;;;;7.10;3.00;;;13.70;96.60;;;;;;5032683;28;20685;-80
2023/03/21 08:39:52;;;;;;;5.78;3.00;;;13.20;96.10;;;;;;5031481;28;20436;-80
2023/03/21 08:42:18;;;;;;;4.55;3.17;;;13.00;99.40;;;;;;5027083;28;20049;-80
2023/03/21 08:44:44;;;;;;;4.53;3.00;;;12.80;98.40;;;;;;5008404;28;20025;-80
2023/03/21 08:47:10;;;;;;;6.05;3.03;;;12.80;99.50;;;;;;5016888;28;20040;-80
2023/03/21 08:49:36;;;;;;;4.30;2.70;;;12.80;99.80;;;;;;5009050;28;20042;-80
2023/03/21 08:52:03;;;;;;;4.32;2.25;;;12.80;98.90;;;;;;5042192;28;20022;-80
2023/03/21 08:54:29;;;;;;;3.63;2.70;;;12.80;99.30;;;;;;5034957;28;20041;-79
2023/03/21 08:56:55;;;;;;;8.07;1.92;;;12.70;99.90;;;;;;5033114;28;20041;-80
2023/03/21 08:59:20;;;;;;;4.15;1.90;;;12.70;99.90;;;;;;5017152;28;20048;-79
2023/03/21 09:01:46;;;;;;;8.27;2.75;;;12.70;99.90;;;;;;5022069;28;20079;-80
2023/03/21 09:04:12;;;;;;;6.72;2.35;;;12.70;98.40;;;;;;5034260;28;20021;-80
2023/03/21 09:06:46;;;;;;;4.93;1.95;;;12.50;97.30;;;;;;5032909;28;20048;-80
2023/03/21 09:09:13;;;;;;;5.50;2.60;;;12.40;98.90;;;;;;5022679;28;20447;-80
2023/03/21 09:11:39;;;;;;;7.03;2.60;;;12.40;99.40;;;;;;5020380;28;20021;-79
2023/03/21 09:14:04;;;;;;;6.47;2.70;;;12.30;98.30;;;;;;5008928;28;20022;-78
2023/03/21 09:16:31;;;;;;;5.05;1.98;;;12.10;98.40;;;;;;5025129;28;20084;-79
2023/03/21 09:18:57;;;;;;;3.70;2.13;;;12.00;98.00;;;;;;5022558;28;20041;-78
2023/03/21 09:21:27;;;;;;;5.70;2.30;;;11.90;97.30;;;;;;5023137;28;20458;-79
2023/03/21 09:23:55;;;;;;;3.53;2.20;;;11.90;99.90;;;;;;5020592;28;20032;-78
2023/03/21 09:26:22;;;;;;;5.43;2.30;;;12.00;99.90;;;;;;5009829;28;20104;-78
2023/03/21 09:28:49;;;;;;;2.80;1.98;;;12.10;99.90;;;;;;5022481;28;20053;-79
2023/03/21 09:31:20;;;;;;;4.75;2.10;;;12.20;98.20;;;;;;5025844;28;20033;-79
2023/03/21 09:33:46;;;;;;;6.47;2.72;;;12.20;99.90;;;;;;5029471;28;20040;-78
2023/03/21 09:36:13;;;;;;;5.30;2.45;;;12.30;99.90;;;;;;5029261;28;20502;-78
2023/03/21 09:38:44;;;;;;;5.47;2.42;;;12.40;99.90;;;;;;5017183;28;20037;-79
2023/03/21 09:41:35;;;;;;;6.63;3.00;;;12.40;99.90;;;;;;5025656;28;20022;-79
2023/03/21 09:44:17;;;;;;;5.35;2.65;;;12.30;99.90;;;;;;5033850;28;20022;-79
2023/03/21 09:46:50;;;;;;;4.40;2.65;;;12.20;99.20;;;;;;5035826;28;20040;-80
2023/03/21 09:49:24;;;;;;;3.90;2.25;;;12.20;99.90;;;;;;5038632;28;20047;-80
2023/03/21 09:51:53;;;;;;;5.25;2.75;;;12.20;99.90;;;;;;5034080;28;20513;-79
2023/03/21 09:54:26;;;;;;;11.63;2.47;;;12.20;99.90;;;;;;5015605;28;20092;-79
2023/03/21 09:56:55;;;;;;;4.10;2.85;;;12.30;99.90;;;;;;5034928;28;20032;-79
2023/03/21 09:59:41;;;;;;;2.92;2.40;;;12.40;99.90;;;;;;5032482;28;20080;-79
2023/03/21 10:02:34;;;;;;;5.22;2.80;;;12.40;99.90;;;;;;5027374;28;20017;-79
2023/03/21 10:05:07;;;;;;;5.72;2.42;;;12.30;99.30;;;;;;5030026;28;20633;-79
2023/03/21 10:07:41;;;;;;;5.40;2.60;;;12.40;99.90;;;;;;5051304;28;20045;-79
2023/03/21 10:10:15;;;;;;;3.95;2.50;;;12.50;99.90;;;;;;5026977;28;20034;-82
2023/03/21 10:12:44;;;;;;;3.92;2.40;;;12.50;99.90;;;;;;5025324;28;20033;-82
2023/03/21 10:15:14;;;;;;;4.82;2.47;;;12.60;99.90;;;;;;5034675;28;20040;-81
2023/03/21 10:18:06;;;;;;;4.70;2.45;;;12.50;99.90;;;;;;5023045;28;20445;-80
2023/03/21 10:20:37;;;;;;;4.00;2.50;;;12.40;99.90;;;;;;5028513;28;20087;-80
2023/03/21 10:23:06;;;;;;;3.30;2.42;;;12.50;99.90;;;;;;5025347;28;20039;-80
2023/03/21 10:25:40;;;;;;;9.95;2.20;;;12.50;99.90;;;;;;5040964;28;20057;-80
2023/03/21 10:28:08;;;;;;;3.92;2.15;;;12.60;99.90;;;;;;5016524;28;20037;-80
2023/03/21 10:30:43;;;;;;;6.25;1.73;;;12.70;99.90;;;;;;5033327;28;20404;-79
2023/03/21 10:33:34;;;;;;;3.47;2.08;;;12.70;99.90;;;;;;5027888;28;20489;-79
2023/03/21 10:36:05;;;;;;;3.38;2.13;;;12.80;99.90;;;;;;5025778;28;20025;-79
2023/03/21 10:38:31;;;;;;;3.30;2.28;;;12.90;99.40;;;;;;5029582;28;20025;-81
2023/03/21 10:40:57;;;;;;;5.35;2.15;;;12.90;99.90;;;;;;5008421;28;20029;-80
2023/03/21 10:43:26;;;;;;;4.55;2.40;;;13.00;99.90;;;;;;5030799;28;20608;-79
2023/03/21 10:45:53;;;;;;;4.57;1.90;;;13.00;99.90;;;;;;5028566;28;20034;-80
2023/03/21 10:48:20;;;;;;;5.50;2.70;;;13.10;99.90;;;;;;5040856;28;20362;-79
2023/03/21 10:50:52;;;;;;;7.95;2.63;;;13.10;99.90;;;;;;5024149;28;20900;-80
2023/03/21 10:53:22;;;;;;;9.23;3.13;;;13.10;99.90;;;;;;5031087;28;20021;-79
2023/03/21 10:55:53;;;;;;;4.88;2.30;;;13.10;98.30;;;;;;5027117;28;20044;-79
2023/03/21 10:58:26;;;;;;;4.03;2.67;;;13.10;99.00;;;;;;5029299;28;20045;-84
2023/03/21 11:00:59;;;;;;;7.03;2.45;;;13.20;99.90;;;;;;5017300;28;20053;-79
2023/03/21 11:03:42;;;;;;;5.50;2.80;;;13.20;98.30;;;;;;5030058;28;20047;-79
2023/03/21 11:06:29;;;;;;;5.00;2.28;;;13.20;97.90;;;;;;5028057;28;20021;-79
2023/03/21 11:09:08;;;;;;;4.45;2.25;;;13.20;99.30;;;;;;5029804;28;20048;-79
2023/03/21 11:11:49;;;;;;;3.95;2.00;;;13.20;98.70;;;;;;5027811;28;20060;-79
2023/03/21 11:14:44;;;;;;;5.25;2.33;;;13.20;98.70;;;;;;5030836;28;20041;-79
2023/03/21 11:17:16;;;;;;;5.43;2.25;;;13.20;98.70;;;;;;5038562;28;20037;-79
2023/03/21 11:19:56;;;;;;;4.60;1.80;;;13.20;99.10;;;;;;5026628;28;20180;-79
2023/03/21 11:22:27;;;;;;;4.10;2.20;;;13.10;99.80;;;;;;5040165;28;20030;-79
2023/03/21 11:25:00;;;;;;;7.05;2.47;;;13.20;99.90;;;;;;5025871;28;20025;-79
2023/03/21 11:27:28;;;;;;;4.40;2.25;;;13.30;98.00;;;;;;5032056;28;20105;-79
2023/03/21 11:29:57;;;;;;;4.00;1.98;;;13.40;99.00;;;;;;5022668;28;20071;-79
2023/03/21 11:32:25;;;;;;;6.28;2.83;;;13.50;98.30;;;;;;5027869;28;20041;-79
2023/03/21 11:34:57;;;;;;;6.22;2.28;;;13.50;94.90;;;;;;5029093;28;20038;-79
2023/03/21 11:37:25;;;;;;;4.18;2.00;;;13.50;96.30;;;;;;5029243;28;20036;-80
2023/03/21 11:40:04;;;;;;;4.28;2.75;;;13.50;98.50;;;;;;5032492;28;20037;-78
2023/03/21 11:42:32;;;;;;;3.22;2.33;;;13.60;97.90;;;;;;5030219;28;20029;-79
2023/03/21 11:45:13;;;;;;;7.22;2.42;;;13.70;95.60;;;;;;5054171;28;20029;-79
2023/03/21 11:47:39;;;;;;;3.63;2.28;;;13.70;95.00;;;;;;5032742;28;20488;-80
2023/03/21 11:50:18;;;;;;;4.68;2.47;;;13.80;97.20;;;;;;5044134;28;20091;-82
2023/03/21 11:53:04;;;;;;;4.85;2.25;;;13.90;97.20;;;;;;5036785;28;20034;-79
2023/03/21 11:56:00;;;;;;;3.28;1.70;;;14.10;95.20;;;;;;5032817;28;20033;-79
2023/03/21 11:58:44;;;;;;;6.65;1.77;;;14.20;93.50;;;;;;5027689;28;20035;-80
2023/03/21 12:01:25;;;;;;;2.65;1.50;;;14.40;94.90;;;;;;5024739;28;20028;-79
2023/03/21 12:04:03;;;;;;;3.83;1.52;;;14.70;95.90;;;;;;5029290;28;20469;-80
2023/03/21 12:06:54;;;;;;;7.78;2.80;;;14.90;96.40;;;;;;5028576;28;20053;-78
2023/03/21 12:09:48;;;;;;;3.53;1.75;;;15.10;93.20;;;;;;5023004;28;20046;-79
2023/03/21 12:12:31;;;;;;;4.20;1.65;;;15.30;95.60;;;;;;5025218;28;20036;-79
2023/03/21 12:15:04;;;;;;;4.53;1.98;;;15.60;97.30;;;;;;5023423;28;20033;-79
2023/03/21 12:18:08;;;;;;;2.28;1.40;;;15.80;95.40;;;;;;5028973;28;20041;-79
2023/03/21 12:20:44;;;;;;;2.70;1.67;;;16.00;91.70;;;;;;5028068;28;20444;-80
2023/03/21 12:23:22;;;;;;;3.28;1.50;;;15.90;92.20;;;;;;5023083;28;20044;-79
2023/03/21 12:25:59;;;;;;;4.07;1.40;;;15.90;92.00;;;;;;5042891;28;20104;-79
2023/03/21 12:28:53;;;;;;;4.13;1.85;;;15.80;91.50;;;;;;5021194;28;20040;-79
2023/03/21 12:31:43;;;;;;;5.63;2.35;;;15.80;91.40;;;;;;5022694;28;20079;-79
2023/03/21 12:34:18;;;;;;;3.15;1.90;;;15.70;92.90;;;;;;5018458;28;20044;-80
2023/03/21 12:36:54;;;;;;;1.75;1.60;;;15.70;92.40;;;;;;5046110;28;20269;-79
2023/03/21 12:39:33;;;;;;;2.47;2.00;;;15.70;93.70;;;;;;5040771;28;20042;-79
2023/03/21 12:42:34;;;;;;;5.10;1.73;;;15.70;92.70;;;;;;5022553;28;20018;-79
2023/03/21 12:45:19;;;;;;;4.45;2.33;;;15.80;92.20;;;;;;5039770;28;20600;-79
2023/03/21 12:47:50;;;;;;;4.13;2.45;;;15.70;91.20;;;;;;5028996;28;20033;-80
2023/03/21 12:50:49;;;;;;;4.85;2.20;;;15.70;91.40;;;;;;5028715;28;20029;-79
2023/03/21 12:53:43;;;;;;;3.15;2.00;;;15.60;92.20;;;;;;5013162;28;20116;-79
2023/03/21 12:56:18;;;;;;;4.78;2.53;;;15.60;94.20;;;;;;5026973;28;20497;-80
2023/03/21 12:58:53;;;;;;;4.30;2.50;;;15.70;94.50;;;;;;5027940;28;20140;-79
2023/03/21 13:01:20;;;;;;;;;;;15.70;92.80;;;;;;5008162;28;20376;-80
2023/03/21 13:04:25;;;;;;;4.57;2.80;;;15.80;92.20;;;;;;5027718;28;19917;-80
2023/03/21 13:06:53;;;;;;;5.55;3.03;;;15.80;91.80;;;;;;5022337;28;20034;-79
2023/03/21 13:09:35;;;;;;;5.53;3.22;;;15.70;90.60;;;;;;5023961;28;20156;-80
2023/03/21 13:12:21;;;;;;;5.82;3.00;;;15.70;91.50;;;;;;5025592;28;20124;-79
2023/03/21 13:14:55;;;;;;;;;;;15.60;91.80;;;;;;5029457;28;20112;-79
2023/03/21 13:17:31;;;;;;;7.25;2.80;;;15.50;90.80;;;;;;5030992;28;19999;-78
2023/03/21 13:20:26;;;;;;;5.35;3.28;;;15.50;93.30;;;;;;5030215;28;20029;-80